Time;durP1;ratioP1;P1;durP2;ratioP2;P2;SDS_P1;SDS_P2;PMS_P1;PMS_P2;Temp;Humidity;BMP_temperature;BMP_pressure;BME280_temperature;BME280_humidity;BME280_pressure;Samples;Min_cycle;Max_cycle;Signal;HPM_P1;HPM_P2
2023/11/07 00:00:41;;;;;;;6.60;4.70;;;;;;;4.56;100.00;98853.51;430825;1276;139132;-63
2023/11/07 00:10:47;;;;;;;4.50;3.70;;;;;;;4.54;100.00;98867.98;430251;1276;139037;-62
2023/11/07 00:20:53;;;;;;;9.60;4.70;;;;;;;4.52;100.00;98869.50;430347;1270;139172;-64
2023/11/07 00:30:59;;;;;;;7.60;5.30;;;;;;;4.49;100.00;98877.39;429842;1270;140781;-64
2023/11/07 00:41:06;;;;;;;5.60;4.00;;;;;;;4.38;100.00;98882.83;429826;1275;138967;-63
2023/11/07 00:51:12;;;;;;;11.20;5.80;;;;;;;4.31;100.00;98881.58;430550;1274;139389;-64
2023/11/07 01:01:19;;;;;;;9.30;5.10;;;;;;;4.27;100.00;98878.33;430892;1276;139163;-62
2023/11/07 01:11:24;;;;;;;7.60;4.90;;;;;;;4.24;100.00;98879.33;429789;1276;139098;-63
2023/11/07 01:21:30;;;;;;;8.00;5.90;;;;;;;4.19;100.00;98886.31;429812;1276;139463;-64
2023/11/07 01:31:36;;;;;;;9.40;5.70;;;;;;;4.14;100.00;98892.48;429859;1274;140053;-63
2023/11/07 01:41:42;;;;;;;9.40;5.80;;;;;;;4.09;100.00;98894.08;429579;1276;139219;-62
2023/11/07 01:51:49;;;;;;;9.10;5.90;;;;;;;4.05;100.00;98901.75;431766;1273;141204;-63
2023/11/07 02:01:59;;;;;;;7.40;4.70;;;;;;;4.13;100.00;98899.27;430137;1275;139148;-63
2023/11/07 02:12:06;;;;;;;10.00;5.50;;;;;;;4.23;100.00;98913.05;430343;1276;139420;-62
2023/11/07 02:22:15;;;;;;;7.50;6.70;;;;;;;4.27;100.00;98910.38;431372;1273;139488;-64
2023/11/07 02:32:23;;;;;;;12.70;5.10;;;;;;;4.42;100.00;98905.67;431085;1275;140844;-64
2023/11/07 02:42:30;;;;;;;9.30;5.50;;;;;;;4.66;100.00;98899.80;431177;1270;139949;-63
2023/11/07 02:52:37;;;;;;;8.40;4.40;;;;;;;4.82;100.00;98900.05;430308;1274;139307;-64
2023/11/07 03:02:42;;;;;;;7.50;4.60;;;;;;;4.95;100.00;98903.18;429814;1276;140573;-63
2023/11/07 03:12:48;;;;;;;4.70;3.10;;;;;;;5.04;100.00;98909.47;429588;1276;139246;-64
2023/11/07 03:22:54;;;;;;;8.00;5.30;;;;;;;5.21;100.00;98919.20;429820;1273;139022;-63
2023/11/07 03:33:00;;;;;;;4.00;3.30;;;;;;;5.39;100.00;98928.64;429502;1276;139211;-63
2023/11/07 03:43:07;;;;;;;6.10;4.50;;;;;;;5.58;100.00;98933.76;429494;1274;138974;-64
2023/11/07 03:53:13;;;;;;;5.50;3.60;;;;;;;5.75;100.00;98938.38;431382;1270;139634;-63
2023/11/07 04:03:22;;;;;;;6.50;3.40;;;;;;;5.93;100.00;98942.61;429420;1274;139238;-64
2023/11/07 04:13:29;;;;;;;3.40;2.80;;;;;;;6.09;100.00;98950.46;430202;1274;139318;-63
2023/11/07 04:23:35;;;;;;;4.70;2.20;;;;;;;6.24;100.00;98960.06;430926;1270;139469;-64
2023/11/07 04:33:41;;;;;;;3.50;2.50;;;;;;;6.36;100.00;98964.80;429631;1270;139135;-63
2023/11/07 04:43:48;;;;;;;4.90;2.80;;;;;;;6.43;100.00;98968.40;429599;1275;139694;-63
2023/11/07 04:53:54;;;;;;;8.80;3.40;;;;;;;6.50;100.00;98964.71;429715;1270;139747;-63
2023/11/07 05:04:00;;;;;;;4.80;2.70;;;;;;;6.55;100.00;98971.69;429557;1271;141149;-63
2023/11/07 05:14:07;;;;;;;6.30;3.60;;;;;;;6.59;100.00;98976.17;429802;1275;140206;-64
2023/11/07 05:24:15;;;;;;;3.60;1.80;;;;;;;6.65;100.00;98986.59;430451;1273;139172;-62
2023/11/07 05:34:21;;;;;;;2.90;2.30;;;;;;;6.70;100.00;98992.27;430073;1269;140077;-64
2023/11/07 05:44:27;;;;;;;4.60;3.00;;;;;;;6.70;100.00;99007.71;429667;1275;139238;-62
2023/11/07 05:54:33;;;;;;;5.30;3.30;;;;;;;6.68;100.00;99018.27;429833;1273;139368;-63
2023/11/07 06:04:39;;;;;;;4.30;3.20;;;;;;;6.69;100.00;99031.09;430171;1270;139055;-62
2023/11/07 06:14:45;;;;;;;6.60;3.20;;;;;;;6.81;100.00;99042.42;430013;1273;140145;-62
2023/11/07 06:24:51;;;;;;;4.10;3.00;;;;;;;6.94;100.00;99056.98;429835;1273;139167;-63
2023/11/07 06:34:57;;;;;;;4.10;3.00;;;;;;;7.10;100.00;99061.33;430124;1273;139663;-65
2023/11/07 06:45:05;;;;;;;4.60;3.50;;;;;;;7.23;100.00;99058.80;431054;1270;139607;-64
2023/11/07 06:55:13;;;;;;;5.30;2.80;;;;;;;7.37;100.00;99066.85;430920;1269;139612;-65
2023/11/07 07:05:19;;;;;;;2.90;2.20;;;;;;;7.54;100.00;99080.83;432075;1270;139761;-65
2023/11/07 07:15:25;;;;;;;7.30;3.00;;;;;;;8.39;100.00;99085.30;429655;1270;139546;-70
2023/11/07 07:25:32;;;;;;;5.60;3.40;;;;;;;11.88;100.00;99090.73;429835;1271;139636;-73
2023/11/07 07:35:39;;;;;;;3.60;3.00;;;;;;;16.34;100.00;99098.85;432888;1273;140056;-67
2023/11/07 07:45:45;;;;;;;3.90;2.80;;;;;;;19.47;97.56;99103.45;434283;1270;140092;-82
2023/11/07 07:55:51;;;;;;;3.70;2.30;;;;;;;17.87;88.35;99117.92;434184;1273;138521;-71
2023/11/07 08:05:58;;;;;;;4.00;1.90;;;;;;;15.59;87.97;99126.27;433733;1270;138692;-65
2023/11/07 08:16:06;;;;;;;2.80;1.90;;;;;;;14.52;89.48;99136.48;431372;1269;138718;-81
2023/11/07 08:26:17;;;;;;;2.80;1.60;;;;;;;14.23;90.03;99142.36;434013;1270;139533;-70
2023/11/07 08:36:23;;;;;;;2.50;1.50;;;;;;;14.75;89.39;99149.02;430825;1269;138677;-71
2023/11/07 08:46:29;;;;;;;3.60;2.00;;;;;;;13.81;87.88;99162.59;430598;1270;139266;-69
2023/11/07 08:56:36;;;;;;;3.10;1.60;;;;;;;12.87;89.02;99162.85;430470;1270;140556;-69
2023/11/07 09:06:42;;;;;;;2.50;1.70;;;;;;;12.56;89.70;99166.50;430167;1274;138603;-66
2023/11/07 09:16:48;;;;;;;2.80;1.80;;;;;;;12.62;90.51;99173.30;429774;1274;139245;-68
2023/11/07 09:26:55;;;;;;;1.70;1.30;;;;;;;12.90;90.68;99173.73;430505;1270;139167;-67
2023/11/07 09:37:02;;;;;;;2.40;1.60;;;;;;;13.01;89.69;99177.60;430270;1270;139578;-68
2023/11/07 09:47:08;;;;;;;2.40;1.90;;;;;;;12.76;89.49;99186.56;430330;1273;140683;-67
2023/11/07 09:57:15;;;;;;;3.50;1.40;;;;;;;12.47;89.36;99185.85;430172;1274;139679;-68
2023/11/07 10:07:22;;;;;;;3.20;1.30;;;;;;;12.29;89.60;99186.16;430981;1275;139215;-67
2023/11/07 10:17:28;;;;;;;2.00;0.90;;;;;;;12.27;89.47;99181.94;430944;1270;139552;-68
2023/11/07 10:27:34;;;;;;;1.70;0.80;;;;;;;12.48;89.09;99179.13;430771;1270;139336;-66
2023/11/07 10:37:41;;;;;;;2.80;1.00;;;;;;;12.46;88.13;99174.50;430573;1274;139983;-68
2023/11/07 10:47:48;;;;;;;3.10;1.20;;;;;;;11.94;87.81;99185.63;429943;1274;139525;-63
2023/11/07 10:58:00;;;;;;;1.20;0.70;;;;;;;11.70;88.32;99178.31;429785;1274;139316;-62
2023/11/07 11:08:09;;;;;;;2.00;1.20;;;;;;;11.80;89.04;99170.39;430376;1270;139939;-61
2023/11/07 11:18:20;;;;;;;3.50;0.90;;;;;;;11.98;88.24;99157.67;431291;1274;139521;-60
2023/11/07 11:28:40;;;;;;;2.50;1.00;;;;;;;11.91;87.30;99153.25;430042;1270;139125;-66
2023/11/07 11:38:46;;;;;;;2.80;0.80;;;;;;;11.95;86.97;99153.65;430908;1276;139180;-76
2023/11/07 11:49:08;;;;;;;2.10;1.20;;;;;;;12.22;86.88;99161.64;433650;1273;138978;-68
2023/11/07 11:59:16;;;;;;;1.90;1.10;;;;;;;12.31;85.67;99166.38;431085;1273;139791;-70
2023/11/07 12:09:31;;;;;;;;;;;;;;;11.96;85.03;99161.53;429983;1273;139586;-69
2023/11/07 12:19:38;;;;;;;2.50;1.10;;;;;;;11.58;84.78;99157.27;429779;1274;125786;-70
2023/11/07 12:29:44;;;;;;;7.10;1.30;;;;;;;11.28;85.08;99160.25;433505;1272;138977;-86
2023/11/07 12:39:51;;;;;;;1.70;0.70;;;;;;;11.29;85.76;99155.75;433780;1273;140499;-72
2023/11/07 12:49:58;;;;;;;3.10;1.10;;;;;;;11.28;86.21;99160.20;433892;1273;139565;-74
2023/11/07 13:00:07;;;;;;;3.20;1.40;;;;;;;11.28;86.84;99155.13;433254;1271;139269;-69
2023/11/07 13:10:18;;;;;;;3.90;1.30;;;;;;;11.37;87.18;99152.06;433784;1270;139221;-70
2023/11/07 13:20:25;;;;;;;1.10;0.80;;;;;;;11.40;87.17;99147.98;433658;1273;139302;-72
2023/11/07 13:30:31;;;;;;;1.30;1.20;;;;;;;11.41;86.65;99149.08;433514;1270;140948;-72
2023/11/07 13:40:37;;;;;;;1.60;1.20;;;;;;;11.32;86.42;99161.85;430551;1275;139875;-73
2023/11/07 13:50:44;;;;;;;3.00;1.00;;;;;;;11.13;86.82;99166.02;430111;1271;139258;-73
2023/11/07 14:00:50;;;;;;;5.80;1.70;;;;;;;10.99;87.28;99163.88;431183;1274;139682;-71
2023/11/07 14:10:57;;;;;;;4.80;1.40;;;;;;;10.86;87.56;99166.04;433556;1271;139221;-73
2023/11/07 14:21:04;;;;;;;7.70;3.40;;;;;;;10.71;87.73;99170.63;430974;1274;141015;-63
2023/11/07 14:31:11;;;;;;;5.40;3.40;;;;;;;10.51;88.04;99165.73;429784;1271;139727;-63
2023/11/07 14:41:17;;;;;;;6.30;3.80;;;;;;;10.28;88.58;99170.41;430065;1271;140033;-62
2023/11/07 14:51:23;;;;;;;6.20;3.80;;;;;;;10.17;88.98;99166.78;430265;1275;139498;-61
2023/11/07 15:01:29;;;;;;;11.70;7.60;;;;;;;10.04;89.24;99161.95;429930;1271;139259;-62
2023/11/07 15:11:35;;;;;;;14.70;9.00;;;;;;;9.92;89.51;99158.20;429994;1270;140656;-62
2023/11/07 15:21:42;;;;;;;8.70;5.40;;;;;;;9.79;89.76;99161.16;430326;1273;139718;-61
2023/11/07 15:31:50;;;;;;;9.70;6.00;;;;;;;9.64;89.90;99158.13;429996;1274;138968;-66
2023/11/07 15:41:56;;;;;;;13.60;9.50;;;;;;;9.44;90.18;99157.89;430380;1274;139978;-66
2023/11/07 15:52:02;;;;;;;25.30;15.10;;;;;;;9.25;90.34;99152.10;429939;1274;139407;-67
2023/11/07 16:02:09;;;;;;;24.40;16.00;;;;;;;9.10;91.06;99155.85;429791;1275;139273;-67
2023/11/07 16:12:15;;;;;;;18.50;10.20;;;;;;;9.04;91.21;99160.65;430875;1273;139355;-66
2023/11/07 16:22:21;;;;;;;13.80;8.70;;;;;;;8.86;91.22;99153.73;430150;1270;139737;-69
2023/11/07 16:32:27;;;;;;;12.50;8.20;;;;;;;8.73;91.56;99152.12;429916;1276;140582;-61
2023/11/07 16:42:34;;;;;;;13.10;8.90;;;;;;;8.72;91.90;99152.68;429962;1274;139420;-63
2023/11/07 16:52:40;;;;;;;18.20;12.70;;;;;;;8.78;92.11;99157.23;430677;1271;139384;-64
2023/11/07 17:02:47;;;;;;;23.70;15.80;;;;;;;8.81;92.12;99154.58;430069;1276;140946;-64
2023/11/07 17:12:53;;;;;;;21.40;14.30;;;;;;;8.81;92.19;99159.13;430160;1270;139359;-63
2023/11/07 17:22:59;;;;;;;21.70;15.40;;;;;;;8.78;92.21;99165.59;430029;1276;139416;-64
2023/11/07 17:33:05;;;;;;;23.70;14.80;;;;;;;8.74;92.47;99163.44;429951;1276;139413;-64
2023/11/07 17:43:11;;;;;;;22.40;12.70;;;;;;;8.65;92.55;99164.85;430097;1276;139469;-64
2023/11/07 17:53:17;;;;;;;29.10;13.90;;;;;;;8.42;92.51;99165.86;430874;1273;139469;-63
2023/11/07 18:03:23;;;;;;;25.20;14.40;;;;;;;8.08;92.45;99168.98;430705;1276;139419;-64
2023/11/07 18:13:30;;;;;;;18.70;10.80;;;;;;;7.68;92.85;99168.38;430497;1274;139219;-63
2023/11/07 18:23:38;;;;;;;20.50;13.00;;;;;;;7.34;93.33;99161.77;429713;1275;140104;-63
2023/11/07 18:33:48;;;;;;;22.80;15.00;;;;;;;7.09;94.11;99156.02;430069;1275;139245;-63
2023/11/07 18:43:56;;;;;;;27.10;16.60;;;;;;;6.97;94.55;99153.04;430392;1276;140109;-63
2023/11/07 18:54:03;;;;;;;23.50;16.00;;;;;;;6.69;94.71;99148.17;429656;1270;180782;-64
2023/11/07 19:04:09;;;;;;;21.90;14.70;;;;;;;6.39;95.12;99149.08;429858;1276;140854;-63
2023/11/07 19:14:15;;;;;;;22.20;14.80;;;;;;;6.20;96.04;99146.96;430264;1275;139908;-65
2023/11/07 19:24:22;;;;;;;21.60;13.60;;;;;;;6.01;96.26;99137.48;430027;1274;139403;-62
2023/11/07 19:34:28;;;;;;;24.00;15.90;;;;;;;5.84;96.86;99148.97;429866;1276;139516;-62
2023/11/07 19:44:35;;;;;;;19.60;15.10;;;;;;;5.81;97.85;99157.44;429812;1274;139734;-61
2023/11/07 19:54:40;;;;;;;;;;;;;;;5.87;98.18;99162.17;429998;1274;139179;-62
2023/11/07 20:04:47;;;;;;;19.80;14.90;;;;;;;5.78;98.30;99158.46;429944;1275;125778;-62
2023/11/07 20:14:52;;;;;;;;;;;;;;;5.63;98.57;99162.00;431111;1270;140050;-63
2023/11/07 20:24:58;;;;;;;25.80;16.90;;;;;;;5.50;98.96;99164.38;430148;1276;125615;-63
2023/11/07 20:35:05;;;;;;;20.20;15.30;;;;;;;5.37;99.44;99160.84;429923;1276;139623;-63
2023/11/07 20:45:12;;;;;;;21.70;14.00;;;;;;;5.37;99.94;99152.02;430549;1275;140963;-63
2023/11/07 20:55:19;;;;;;;19.60;13.40;;;;;;;5.48;100.00;99145.52;429927;1275;139629;-62
2023/11/07 21:05:25;;;;;;;20.00;12.70;;;;;;;5.65;100.00;99131.13;429714;1276;139846;-63
2023/11/07 21:15:32;;;;;;;17.10;12.80;;;;;;;5.63;100.00;99127.29;429666;1275;141056;-60
2023/11/07 21:25:38;;;;;;;17.20;13.00;;;;;;;5.61;100.00;99120.05;430074;1273;140694;-63
2023/11/07 21:35:45;;;;;;;23.70;13.40;;;;;;;5.48;100.00;99114.99;429987;1276;140392;-62
2023/11/07 21:45:52;;;;;;;24.40;14.90;;;;;;;5.26;100.00;99115.73;429976;1274;139627;-62
2023/11/07 21:55:58;;;;;;;26.00;17.40;;;;;;;5.01;100.00;99122.31;429865;1275;139784;-63
2023/11/07 22:06:04;;;;;;;22.70;16.00;;;;;;;4.91;100.00;99125.92;429799;1274;140616;-62
2023/11/07 22:16:10;;;;;;;25.20;17.40;;;;;;;4.96;100.00;99134.88;429864;1276;139603;-62
2023/11/07 22:26:16;;;;;;;25.10;16.40;;;;;;;5.07;100.00;99131.55;430033;1273;140319;-63
2023/11/07 22:36:26;;;;;;;32.90;20.60;;;;;;;5.26;100.00;99128.76;430773;1270;139507;-63
2023/11/07 22:46:32;;;;;;;21.60;15.30;;;;;;;5.44;100.00;99124.38;430460;1276;140461;-65
2023/11/07 22:56:38;;;;;;;25.30;17.30;;;;;;;5.57;100.00;99122.50;430103;1270;139743;-64
2023/11/07 23:06:45;;;;;;;19.20;14.60;;;;;;;5.67;100.00;99117.48;430042;1274;141862;-65
2023/11/07 23:16:52;;;;;;;23.90;15.50;;;;;;;5.73;100.00;99106.21;430318;1276;140175;-64
2023/11/07 23:26:57;;;;;;;;;;;;;;;5.80;100.00;99102.10;430384;1272;139498;-64
2023/11/07 23:37:03;;;;;;;19.20;12.60;;;;;;;5.84;100.00;99095.64;430363;1273;125475;-64
2023/11/07 23:47:09;;;;;;;21.00;15.40;;;;;;;5.86;100.00;99092.19;431482;1269;139970;-64
2023/11/07 23:57:15;;;;;;;20.80;14.10;;;;;;;5.88;100.00;99092.63;430065;1270;141307;-64
